首页
METAR-TAF:

METAR-TAF

机场 :

布里斯托機場

布里斯托尔, 英格兰

纬度: 51-23N, 经度: 002-43W, 海拔: 189米

当前天气观测

该预报发布于36分钟前的13:50 UTC
风速9节,风向,在东北东南之间变化
温度 10°C
湿度 46%
气压 1032 hPa
能见度10公里或以上
多云层高于4500英尺

METAR: EGGD 151350Z AUTO 08009KT 050V130 9999 BKN045 10/M01 Q1032

时间: 15:26 (14:26 UTC)

预报

该预报发布于3小时和33分钟前的10:53 UTC
预报有效从15日的 12点(UTC)到 16日的 12点(UTC)
风速4节,风向东转东北
能见度10公里或以上
少量云层高于4500英尺
几率 40%
从 16日的 03点(UTC)到 16日的 07点(UTC)
能見度: 6000

TAF: EGGD 151053Z 1512/1612 07004KT 9999 FEW045 PROB40 1603/1607 6000

超过4000个机场的气象观测和天气预报(METAR&TAF报告)。

可查询的气象台以黄色和红色小点在地图上表示。

将鼠标移到小点上方,可查看气象台名称。

然后点击查看天气观测和预报。

如需切换地图:点击带黑十字的绿色按钮放大地图;点击带横线的绿色按钮缩小地图;或者点击绿色箭头查看邻近地区的地图。


METAR-TAF: